sensor_id;sensor_type;location;lat;lon;timestamp;temperature;humidity
9800;DHT22;4939;52.00085300;4.17406100;2023-04-22T00:03:51;8.60;99.90
9800;DHT22;4939;52.00085300;4.17406100;2023-04-22T00:06:18;8.50;99.90
9800;DHT22;4939;52.00085300;4.17406100;2023-04-22T00:08:43;8.50;99.90
9800;DHT22;4939;52.00085300;4.17406100;2023-04-22T00:11:09;8.40;99.90
9800;DHT22;4939;52.00085300;4.17406100;2023-04-22T00:13:36;8.40;99.90
9800;DHT22;4939;52.00085300;4.17406100;2023-04-22T00:16:03;8.40;99.90
9800;DHT22;4939;52.00085300;4.17406100;2023-04-22T00:18:29;8.30;99.90
9800;DHT22;4939;52.00085300;4.17406100;2023-04-22T00:20:54;8.30;99.90
9800;DHT22;4939;52.00085300;4.17406100;2023-04-22T00:23:20;8.30;99.90
9800;DHT22;4939;52.00085300;4.17406100;2023-04-22T00:25:46;8.20;99.90
9800;DHT22;4939;52.00085300;4.17406100;2023-04-22T00:28:12;8.10;99.90
9800;DHT22;4939;52.00085300;4.17406100;2023-04-22T00:30:37;8.20;99.90
9800;DHT22;4939;52.00085300;4.17406100;2023-04-22T00:33:03;8.20;99.90
9800;DHT22;4939;52.00085300;4.17406100;2023-04-22T00:35:29;8.10;99.90
9800;DHT22;4939;52.00085300;4.17406100;2023-04-22T00:37:55;8.10;99.90
9800;DHT22;4939;52.00085300;4.17406100;2023-04-22T00:40:21;8.10;99.90
9800;DHT22;4939;52.00085300;4.17406100;2023-04-22T00:42:49;8.00;99.90
9800;DHT22;4939;52.00085300;4.17406100;2023-04-22T00:45:16;8.10;99.90
9800;DHT22;4939;52.00085300;4.17406100;2023-04-22T00:47:46;8.00;99.90
9800;DHT22;4939;52.00085300;4.17406100;2023-04-22T00:50:12;7.90;99.90
9800;DHT22;4939;52.00085300;4.17406100;2023-04-22T00:52:37;8.00;99.90
9800;DHT22;4939;52.00085300;4.17406100;2023-04-22T00:55:04;7.90;99.90
9800;DHT22;4939;52.00085300;4.17406100;2023-04-22T00:57:30;7.90;99.90
9800;DHT22;4939;52.00085300;4.17406100;2023-04-22T00:59:57;7.90;99.90
9800;DHT22;4939;52.00085300;4.17406100;2023-04-22T01:02:23;7.80;99.90
9800;DHT22;4939;52.00085300;4.17406100;2023-04-22T01:04:49;7.90;99.90
9800;DHT22;4939;52.00085300;4.17406100;2023-04-22T01:07:15;7.90;99.90
9800;DHT22;4939;52.00085300;4.17406100;2023-04-22T01:09:40;7.80;99.90
9800;DHT22;4939;52.00085300;4.17406100;2023-04-22T01:12:06;7.80;99.90
9800;DHT22;4939;52.00085300;4.17406100;2023-04-22T01:14:33;7.90;99.90
9800;DHT22;4939;52.00085300;4.17406100;2023-04-22T01:16:59;7.90;99.90
9800;DHT22;4939;52.00085300;4.17406100;2023-04-22T01:19:25;7.90;99.90
9800;DHT22;4939;52.00085300;4.17406100;2023-04-22T01:21:51;7.90;99.90
9800;DHT22;4939;52.00085300;4.17406100;2023-04-22T01:24:17;7.90;99.90
9800;DHT22;4939;52.00085300;4.17406100;2023-04-22T01:26:43;7.80;99.90
9800;DHT22;4939;52.00085300;4.17406100;2023-04-22T01:29:10;7.80;99.90
9800;DHT22;4939;52.00085300;4.17406100;2023-04-22T01:31:36;7.80;99.90
9800;DHT22;4939;52.00085300;4.17406100;2023-04-22T01:34:02;7.80;99.90
9800;DHT22;4939;52.00085300;4.17406100;2023-04-22T01:38:55;7.80;99.90
9800;DHT22;4939;52.00085300;4.17406100;2023-04-22T01:43:47;7.70;99.90
9800;DHT22;4939;52.00085300;4.17406100;2023-04-22T01:46:13;7.60;99.90
9800;DHT22;4939;52.00085300;4.17406100;2023-04-22T01:48:40;7.60;99.90
9800;DHT22;4939;52.00085300;4.17406100;2023-04-22T01:53:32;7.50;99.90
9800;DHT22;4939;52.00085300;4.17406100;2023-04-22T01:55:58;7.40;99.90
9800;DHT22;4939;52.00085300;4.17406100;2023-04-22T01:58:28;7.50;99.90
9800;DHT22;4939;52.00085300;4.17406100;2023-04-22T02:00:54;7.50;99.90
9800;DHT22;4939;52.00085300;4.17406100;2023-04-22T02:03:19;7.40;99.90
9800;DHT22;4939;52.00085300;4.17406100;2023-04-22T02:05:45;7.40;99.90
9800;DHT22;4939;52.00085300;4.17406100;2023-04-22T02:10:37;7.40;99.90
9800;DHT22;4939;52.00085300;4.17406100;2023-04-22T02:13:02;7.40;99.90
9800;DHT22;4939;52.00085300;4.17406100;2023-04-22T02:15:28;7.30;99.90
9800;DHT22;4939;52.00085300;4.17406100;2023-04-22T02:17:54;7.30;99.90
9800;DHT22;4939;52.00085300;4.17406100;2023-04-22T02:22:46;7.40;99.90
9800;DHT22;4939;52.00085300;4.17406100;2023-04-22T02:25:12;7.30;99.90
9800;DHT22;4939;52.00085300;4.17406100;2023-04-22T02:27:38;7.30;99.90
9800;DHT22;4939;52.00085300;4.17406100;2023-04-22T02:32:30;7.30;99.90
9800;DHT22;4939;52.00085300;4.17406100;2023-04-22T02:34:56;7.20;99.90
9800;DHT22;4939;52.00085300;4.17406100;2023-04-22T02:37:22;7.30;99.90
9800;DHT22;4939;52.00085300;4.17406100;2023-04-22T02:39:48;7.20;99.90
9800;DHT22;4939;52.00085300;4.17406100;2023-04-22T02:42:15;7.20;99.90
9800;DHT22;4939;52.00085300;4.17406100;2023-04-22T02:44:41;7.30;99.90
9800;DHT22;4939;52.00085300;4.17406100;2023-04-22T02:47:06;7.30;99.90
9800;DHT22;4939;52.00085300;4.17406100;2023-04-22T02:49:32;7.20;99.90
9800;DHT22;4939;52.00085300;4.17406100;2023-04-22T02:51:58;7.20;99.90
9800;DHT22;4939;52.00085300;4.17406100;2023-04-22T02:54:23;7.20;99.90
9800;DHT22;4939;52.00085300;4.17406100;2023-04-22T02:59:15;7.20;99.90
9800;DHT22;4939;52.00085300;4.17406100;2023-04-22T03:01:41;7.20;99.90
9800;DHT22;4939;52.00085300;4.17406100;2023-04-22T03:04:07;7.20;99.90
9800;DHT22;4939;52.00085300;4.17406100;2023-04-22T03:06:32;7.20;99.90
9800;DHT22;4939;52.00085300;4.17406100;2023-04-22T03:08:58;7.20;99.90
9800;DHT22;4939;52.00085300;4.17406100;2023-04-22T03:11:23;7.20;99.90
9800;DHT22;4939;52.00085300;4.17406100;2023-04-22T03:13:50;7.20;99.90
9800;DHT22;4939;52.00085300;4.17406100;2023-04-22T03:16:16;7.20;99.90
9800;DHT22;4939;52.00085300;4.17406100;2023-04-22T03:18:42;7.20;99.90
9800;DHT22;4939;52.00085300;4.17406100;2023-04-22T03:21:07;7.30;99.90
9800;DHT22;4939;52.00085300;4.17406100;2023-04-22T03:23:33;7.30;99.90
9800;DHT22;4939;52.00085300;4.17406100;2023-04-22T03:25:59;7.30;99.90
9800;DHT22;4939;52.00085300;4.17406100;2023-04-22T03:28:24;7.30;99.90
9800;DHT22;4939;52.00085300;4.17406100;2023-04-22T03:30:50;7.30;99.90
9800;DHT22;4939;52.00085300;4.17406100;2023-04-22T03:33:17;7.30;99.90
9800;DHT22;4939;52.00085300;4.17406100;2023-04-22T03:35:42;7.40;99.90
9800;DHT22;4939;52.00085300;4.17406100;2023-04-22T03:38:08;7.30;99.90
9800;DHT22;4939;52.00085300;4.17406100;2023-04-22T03:40:34;7.30;99.90
9800;DHT22;4939;52.00085300;4.17406100;2023-04-22T03:42:59;7.40;99.90
9800;DHT22;4939;52.00085300;4.17406100;2023-04-22T03:45:25;7.30;99.90
9800;DHT22;4939;52.00085300;4.17406100;2023-04-22T03:47:51;7.30;99.90
9800;DHT22;4939;52.00085300;4.17406100;2023-04-22T03:50:17;7.40;99.90
9800;DHT22;4939;52.00085300;4.17406100;2023-04-22T03:55:09;7.30;99.90
9800;DHT22;4939;52.00085300;4.17406100;2023-04-22T03:57:35;7.40;99.90
9800;DHT22;4939;52.00085300;4.17406100;2023-04-22T04:07:19;7.40;99.90
9800;DHT22;4939;52.00085300;4.17406100;2023-04-22T04:09:45;7.40;99.90
9800;DHT22;4939;52.00085300;4.17406100;2023-04-22T04:12:10;7.40;99.90
9800;DHT22;4939;52.00085300;4.17406100;2023-04-22T04:14:36;7.40;99.90
9800;DHT22;4939;52.00085300;4.17406100;2023-04-22T04:17:02;7.50;99.90
9800;DHT22;4939;52.00085300;4.17406100;2023-04-22T04:19:28;7.40;99.90
9800;DHT22;4939;52.00085300;4.17406100;2023-04-22T04:21:53;7.40;99.90
9800;DHT22;4939;52.00085300;4.17406100;2023-04-22T04:24:20;7.40;99.90
9800;DHT22;4939;52.00085300;4.17406100;2023-04-22T04:29:13;7.40;99.90
9800;DHT22;4939;52.00085300;4.17406100;2023-04-22T04:31:40;7.30;99.90
9800;DHT22;4939;52.00085300;4.17406100;2023-04-22T04:34:05;7.30;99.90
9800;DHT22;4939;52.00085300;4.17406100;2023-04-22T04:36:32;7.40;99.90
9800;DHT22;4939;52.00085300;4.17406100;2023-04-22T04:38:58;7.30;99.90
9800;DHT22;4939;52.00085300;4.17406100;2023-04-22T04:41:23;7.30;99.90
9800;DHT22;4939;52.00085300;4.17406100;2023-04-22T04:43:51;7.30;99.90
9800;DHT22;4939;52.00085300;4.17406100;2023-04-22T04:46:17;7.30;99.90
9800;DHT22;4939;52.00085300;4.17406100;2023-04-22T04:48:44;7.40;99.90
9800;DHT22;4939;52.00085300;4.17406100;2023-04-22T04:51:11;7.30;99.90
9800;DHT22;4939;52.00085300;4.17406100;2023-04-22T04:53:37;7.40;99.90
9800;DHT22;4939;52.00085300;4.17406100;2023-04-22T04:56:02;7.40;99.90
9800;DHT22;4939;52.00085300;4.17406100;2023-04-22T04:58:28;7.40;99.90
9800;DHT22;4939;52.00085300;4.17406100;2023-04-22T05:00:54;7.40;99.90
9800;DHT22;4939;52.00085300;4.17406100;2023-04-22T05:03:20;7.40;99.90
9800;DHT22;4939;52.00085300;4.17406100;2023-04-22T05:05:45;7.40;99.90
9800;DHT22;4939;52.00085300;4.17406100;2023-04-22T05:08:13;7.50;99.90
9800;DHT22;4939;52.00085300;4.17406100;2023-04-22T05:10:39;7.60;99.90
9800;DHT22;4939;52.00085300;4.17406100;2023-04-22T05:13:05;7.50;99.90
9800;DHT22;4939;52.00085300;4.17406100;2023-04-22T05:15:30;7.50;99.90
9800;DHT22;4939;52.00085300;4.17406100;2023-04-22T05:17:56;7.60;99.90
9800;DHT22;4939;52.00085300;4.17406100;2023-04-22T05:20:21;7.70;99.90
9800;DHT22;4939;52.00085300;4.17406100;2023-04-22T05:22:47;7.60;99.90
9800;DHT22;4939;52.00085300;4.17406100;2023-04-22T05:25:13;7.70;99.90
9800;DHT22;4939;52.00085300;4.17406100;2023-04-22T05:27:39;7.60;99.90
9800;DHT22;4939;52.00085300;4.17406100;2023-04-22T05:30:05;7.70;99.90
9800;DHT22;4939;52.00085300;4.17406100;2023-04-22T05:32:31;7.70;99.90
9800;DHT22;4939;52.00085300;4.17406100;2023-04-22T05:37:23;7.80;99.90
9800;DHT22;4939;52.00085300;4.17406100;2023-04-22T05:39:49;7.90;99.90
9800;DHT22;4939;52.00085300;4.17406100;2023-04-22T05:42:15;7.90;99.90
9800;DHT22;4939;52.00085300;4.17406100;2023-04-22T05:44:40;7.90;99.90
9800;DHT22;4939;52.00085300;4.17406100;2023-04-22T05:47:06;8.00;99.90
9800;DHT22;4939;52.00085300;4.17406100;2023-04-22T05:49:32;8.00;99.90
9800;DHT22;4939;52.00085300;4.17406100;2023-04-22T05:51:57;8.00;99.90
9800;DHT22;4939;52.00085300;4.17406100;2023-04-22T05:54:23;8.10;99.90
9800;DHT22;4939;52.00085300;4.17406100;2023-04-22T05:56:48;8.20;99.90
9800;DHT22;4939;52.00085300;4.17406100;2023-04-22T05:59:14;8.20;99.90
9800;DHT22;4939;52.00085300;4.17406100;2023-04-22T06:01:40;8.20;99.90
9800;DHT22;4939;52.00085300;4.17406100;2023-04-22T06:04:06;8.30;99.90
9800;DHT22;4939;52.00085300;4.17406100;2023-04-22T06:06:34;8.30;99.90
9800;DHT22;4939;52.00085300;4.17406100;2023-04-22T06:09:00;8.40;99.90
9800;DHT22;4939;52.00085300;4.17406100;2023-04-22T06:11:26;8.40;99.90
9800;DHT22;4939;52.00085300;4.17406100;2023-04-22T06:13:52;8.50;99.90
9800;DHT22;4939;52.00085300;4.17406100;2023-04-22T06:16:18;8.50;99.90
9800;DHT22;4939;52.00085300;4.17406100;2023-04-22T06:18:44;8.60;99.90
9800;DHT22;4939;52.00085300;4.17406100;2023-04-22T06:21:10;8.70;99.90
9800;DHT22;4939;52.00085300;4.17406100;2023-04-22T06:23:35;8.70;99.90
9800;DHT22;4939;52.00085300;4.17406100;2023-04-22T06:26:01;8.80;99.90
9800;DHT22;4939;52.00085300;4.17406100;2023-04-22T06:30:53;8.90;99.90
9800;DHT22;4939;52.00085300;4.17406100;2023-04-22T06:33:19;9.00;99.90
9800;DHT22;4939;52.00085300;4.17406100;2023-04-22T06:35:44;9.00;99.90
9800;DHT22;4939;52.00085300;4.17406100;2023-04-22T06:40:36;9.10;99.90
9800;DHT22;4939;52.00085300;4.17406100;2023-04-22T06:43:02;9.20;99.90
9800;DHT22;4939;52.00085300;4.17406100;2023-04-22T06:45:28;9.20;99.90
9800;DHT22;4939;52.00085300;4.17406100;2023-04-22T06:47:54;9.30;99.90
9800;DHT22;4939;52.00085300;4.17406100;2023-04-22T06:50:20;9.40;99.90
9800;DHT22;4939;52.00085300;4.17406100;2023-04-22T06:52:45;9.50;99.90
9800;DHT22;4939;52.00085300;4.17406100;2023-04-22T06:55:11;9.60;99.90
9800;DHT22;4939;52.00085300;4.17406100;2023-04-22T06:57:37;9.60;99.90
9800;DHT22;4939;52.00085300;4.17406100;2023-04-22T07:00:07;9.80;99.90
9800;DHT22;4939;52.00085300;4.17406100;2023-04-22T07:02:35;9.90;99.90
9800;DHT22;4939;52.00085300;4.17406100;2023-04-22T07:05:01;10.00;99.90
9800;DHT22;4939;52.00085300;4.17406100;2023-04-22T07:07:27;10.00;99.90
9800;DHT22;4939;52.00085300;4.17406100;2023-04-22T07:09:52;10.00;99.90
9800;DHT22;4939;52.00085300;4.17406100;2023-04-22T07:12:18;10.10;99.90
9800;DHT22;4939;52.00085300;4.17406100;2023-04-22T07:14:45;10.30;99.90
9800;DHT22;4939;52.00085300;4.17406100;2023-04-22T07:17:11;10.30;99.90
9800;DHT22;4939;52.00085300;4.17406100;2023-04-22T07:19:38;10.40;99.90
9800;DHT22;4939;52.00085300;4.17406100;2023-04-22T07:22:03;10.50;99.90
9800;DHT22;4939;52.00085300;4.17406100;2023-04-22T07:24:30;10.50;99.90
9800;DHT22;4939;52.00085300;4.17406100;2023-04-22T07:27:00;10.70;99.90
9800;DHT22;4939;52.00085300;4.17406100;2023-04-22T07:29:26;10.70;99.90
9800;DHT22;4939;52.00085300;4.17406100;2023-04-22T07:31:52;10.80;99.90
9800;DHT22;4939;52.00085300;4.17406100;2023-04-22T07:34:18;11.00;99.90
9800;DHT22;4939;52.00085300;4.17406100;2023-04-22T07:36:43;11.00;99.90
9800;DHT22;4939;52.00085300;4.17406100;2023-04-22T07:39:09;11.10;99.90
9800;DHT22;4939;52.00085300;4.17406100;2023-04-22T07:41:35;11.30;99.90
9800;DHT22;4939;52.00085300;4.17406100;2023-04-22T07:44:01;11.30;99.90
9800;DHT22;4939;52.00085300;4.17406100;2023-04-22T07:46:28;11.30;99.90
9800;DHT22;4939;52.00085300;4.17406100;2023-04-22T07:48:54;11.50;99.90
9800;DHT22;4939;52.00085300;4.17406100;2023-04-22T07:51:19;11.50;99.90
9800;DHT22;4939;52.00085300;4.17406100;2023-04-22T07:53:45;11.60;99.90
9800;DHT22;4939;52.00085300;4.17406100;2023-04-22T07:56:11;11.50;99.90
9800;DHT22;4939;52.00085300;4.17406100;2023-04-22T07:58:37;11.50;99.90
9800;DHT22;4939;52.00085300;4.17406100;2023-04-22T08:01:03;11.50;99.90
9800;DHT22;4939;52.00085300;4.17406100;2023-04-22T08:03:28;11.50;99.90
9800;DHT22;4939;52.00085300;4.17406100;2023-04-22T08:05:54;11.40;99.90
9800;DHT22;4939;52.00085300;4.17406100;2023-04-22T08:08:23;11.50;99.90
9800;DHT22;4939;52.00085300;4.17406100;2023-04-22T08:10:49;11.50;99.90
9800;DHT22;4939;52.00085300;4.17406100;2023-04-22T08:13:14;11.50;99.90
9800;DHT22;4939;52.00085300;4.17406100;2023-04-22T08:15:40;11.50;99.90
9800;DHT22;4939;52.00085300;4.17406100;2023-04-22T08:18:05;11.60;99.90
9800;DHT22;4939;52.00085300;4.17406100;2023-04-22T08:20:31;11.70;99.90
9800;DHT22;4939;52.00085300;4.17406100;2023-04-22T08:22:57;11.70;99.90
9800;DHT22;4939;52.00085300;4.17406100;2023-04-22T08:25:25;11.80;99.90
9800;DHT22;4939;52.00085300;4.17406100;2023-04-22T08:27:51;11.90;99.90
9800;DHT22;4939;52.00085300;4.17406100;2023-04-22T08:30:17;12.20;99.90
9800;DHT22;4939;52.00085300;4.17406100;2023-04-22T08:32:43;12.40;99.90
9800;DHT22;4939;52.00085300;4.17406100;2023-04-22T08:35:09;12.50;99.90
9800;DHT22;4939;52.00085300;4.17406100;2023-04-22T08:37:34;12.80;99.90
9800;DHT22;4939;52.00085300;4.17406100;2023-04-22T08:40:00;13.00;99.90
9800;DHT22;4939;52.00085300;4.17406100;2023-04-22T08:42:26;13.10;99.90
9800;DHT22;4939;52.00085300;4.17406100;2023-04-22T08:44:53;13.10;99.90
9800;DHT22;4939;52.00085300;4.17406100;2023-04-22T08:47:20;13.00;99.90
9800;DHT22;4939;52.00085300;4.17406100;2023-04-22T08:49:46;12.90;99.90
9800;DHT22;4939;52.00085300;4.17406100;2023-04-22T08:52:12;13.10;99.90
9800;DHT22;4939;52.00085300;4.17406100;2023-04-22T08:54:40;13.10;99.90
9800;DHT22;4939;52.00085300;4.17406100;2023-04-22T08:57:07;13.20;99.90
9800;DHT22;4939;52.00085300;4.17406100;2023-04-22T08:59:33;13.20;99.90
9800;DHT22;4939;52.00085300;4.17406100;2023-04-22T09:02:01;13.30;99.90
9800;DHT22;4939;52.00085300;4.17406100;2023-04-22T09:04:27;13.10;99.90
9800;DHT22;4939;52.00085300;4.17406100;2023-04-22T09:06:53;13.10;99.90
9800;DHT22;4939;52.00085300;4.17406100;2023-04-22T09:09:19;13.00;99.90
9800;DHT22;4939;52.00085300;4.17406100;2023-04-22T09:11:45;13.00;99.90
9800;DHT22;4939;52.00085300;4.17406100;2023-04-22T09:14:10;13.00;99.90
9800;DHT22;4939;52.00085300;4.17406100;2023-04-22T09:16:40;13.00;99.90
9800;DHT22;4939;52.00085300;4.17406100;2023-04-22T09:19:13;12.90;99.90
9800;DHT22;4939;52.00085300;4.17406100;2023-04-22T09:21:42;13.00;99.90
9800;DHT22;4939;52.00085300;4.17406100;2023-04-22T09:24:10;13.00;99.90
9800;DHT22;4939;52.00085300;4.17406100;2023-04-22T09:26:39;12.90;99.90
9800;DHT22;4939;52.00085300;4.17406100;2023-04-22T09:29:05;12.90;99.90
9800;DHT22;4939;52.00085300;4.17406100;2023-04-22T09:31:34;12.90;99.90
9800;DHT22;4939;52.00085300;4.17406100;2023-04-22T09:34:02;12.80;99.90
9800;DHT22;4939;52.00085300;4.17406100;2023-04-22T09:36:29;12.70;99.90
9800;DHT22;4939;52.00085300;4.17406100;2023-04-22T09:39:00;12.60;99.90
9800;DHT22;4939;52.00085300;4.17406100;2023-04-22T09:41:28;12.60;99.90
9800;DHT22;4939;52.00085300;4.17406100;2023-04-22T09:43:55;12.50;99.90
9800;DHT22;4939;52.00085300;4.17406100;2023-04-22T09:46:23;12.60;99.90
9800;DHT22;4939;52.00085300;4.17406100;2023-04-22T09:48:49;12.60;99.90
9800;DHT22;4939;52.00085300;4.17406100;2023-04-22T09:51:16;12.60;99.90
9800;DHT22;4939;52.00085300;4.17406100;2023-04-22T09:53:42;12.70;99.90
9800;DHT22;4939;52.00085300;4.17406100;2023-04-22T09:56:08;12.90;99.90
9800;DHT22;4939;52.00085300;4.17406100;2023-04-22T09:58:38;13.00;99.90
9800;DHT22;4939;52.00085300;4.17406100;2023-04-22T10:01:04;13.00;99.90
9800;DHT22;4939;52.00085300;4.17406100;2023-04-22T10:03:30;12.80;99.90
9800;DHT22;4939;52.00085300;4.17406100;2023-04-22T10:05:59;12.80;99.90
9800;DHT22;4939;52.00085300;4.17406100;2023-04-22T10:08:24;12.70;99.90
9800;DHT22;4939;52.00085300;4.17406100;2023-04-22T10:10:52;12.60;99.90
9800;DHT22;4939;52.00085300;4.17406100;2023-04-22T10:13:18;12.50;99.90
9800;DHT22;4939;52.00085300;4.17406100;2023-04-22T10:15:48;12.30;99.90
9800;DHT22;4939;52.00085300;4.17406100;2023-04-22T10:18:26;12.40;99.90
9800;DHT22;4939;52.00085300;4.17406100;2023-04-22T10:20:53;12.30;99.90
9800;DHT22;4939;52.00085300;4.17406100;2023-04-22T10:23:22;12.10;99.90
9800;DHT22;4939;52.00085300;4.17406100;2023-04-22T10:25:52;12.10;99.90
9800;DHT22;4939;52.00085300;4.17406100;2023-04-22T10:28:19;12.00;99.90
9800;DHT22;4939;52.00085300;4.17406100;2023-04-22T10:30:47;11.80;99.90
9800;DHT22;4939;52.00085300;4.17406100;2023-04-22T10:41:14;11.30;99.90
9800;DHT22;4939;52.00085300;4.17406100;2023-04-22T10:43:47;11.30;99.90
9800;DHT22;4939;52.00085300;4.17406100;2023-04-22T10:49:11;11.40;99.90
9800;DHT22;4939;52.00085300;4.17406100;2023-04-22T10:51:45;11.30;99.90
9800;DHT22;4939;52.00085300;4.17406100;2023-04-22T10:59:26;11.10;99.90
9800;DHT22;4939;52.00085300;4.17406100;2023-04-22T11:01:52;11.10;99.90
9800;DHT22;4939;52.00085300;4.17406100;2023-04-22T11:04:19;11.20;99.90
9800;DHT22;4939;52.00085300;4.17406100;2023-04-22T11:09:49;11.20;99.90
9800;DHT22;4939;52.00085300;4.17406100;2023-04-22T11:15:00;11.20;99.90
9800;DHT22;4939;52.00085300;4.17406100;2023-04-22T11:17:26;11.20;99.90
9800;DHT22;4939;52.00085300;4.17406100;2023-04-22T11:19:52;11.30;99.90
9800;DHT22;4939;52.00085300;4.17406100;2023-04-22T11:22:23;11.50;99.90
9800;DHT22;4939;52.00085300;4.17406100;2023-04-22T11:24:59;11.30;99.90
9800;DHT22;4939;52.00085300;4.17406100;2023-04-22T11:27:26;11.30;99.90
9800;DHT22;4939;52.00085300;4.17406100;2023-04-22T11:30:08;11.30;99.90
9800;DHT22;4939;52.00085300;4.17406100;2023-04-22T11:32:35;11.00;99.90
9800;DHT22;4939;52.00085300;4.17406100;2023-04-22T11:35:05;11.00;99.90
9800;DHT22;4939;52.00085300;4.17406100;2023-04-22T11:37:42;11.00;99.90
9800;DHT22;4939;52.00085300;4.17406100;2023-04-22T11:40:09;11.00;99.90
9800;DHT22;4939;52.00085300;4.17406100;2023-04-22T11:42:36;11.00;99.90
9800;DHT22;4939;52.00085300;4.17406100;2023-04-22T11:45:02;11.20;99.90
9800;DHT22;4939;52.00085300;4.17406100;2023-04-22T11:47:29;11.20;99.90
9800;DHT22;4939;52.00085300;4.17406100;2023-04-22T11:49:57;11.20;99.90
9800;DHT22;4939;52.00085300;4.17406100;2023-04-22T11:52:24;12.50;99.90
9800;DHT22;4939;52.00085300;4.17406100;2023-04-22T11:57:16;11.20;99.90
9800;DHT22;4939;52.00085300;4.17406100;2023-04-22T11:59:43;11.10;99.90
9800;DHT22;4939;52.00085300;4.17406100;2023-04-22T12:02:09;11.10;99.90
9800;DHT22;4939;52.00085300;4.17406100;2023-04-22T12:04:38;11.10;99.90
9800;DHT22;4939;52.00085300;4.17406100;2023-04-22T12:07:05;11.10;99.90
9800;DHT22;4939;52.00085300;4.17406100;2023-04-22T12:09:31;11.20;99.90
9800;DHT22;4939;52.00085300;4.17406100;2023-04-22T12:11:58;11.20;99.90
9800;DHT22;4939;52.00085300;4.17406100;2023-04-22T12:14:33;11.10;99.90
9800;DHT22;4939;52.00085300;4.17406100;2023-04-22T12:17:03;11.10;99.90
9800;DHT22;4939;52.00085300;4.17406100;2023-04-22T12:19:30;10.90;99.90
9800;DHT22;4939;52.00085300;4.17406100;2023-04-22T12:21:56;10.90;99.90
9800;DHT22;4939;52.00085300;4.17406100;2023-04-22T12:24:31;13.20;99.90
9800;DHT22;4939;52.00085300;4.17406100;2023-04-22T12:26:56;11.00;99.90
9800;DHT22;4939;52.00085300;4.17406100;2023-04-22T12:29:55;11.00;99.90
9800;DHT22;4939;52.00085300;4.17406100;2023-04-22T12:32:22;11.30;99.90
9800;DHT22;4939;52.00085300;4.17406100;2023-04-22T12:34:48;11.20;99.90
9800;DHT22;4939;52.00085300;4.17406100;2023-04-22T12:37:14;11.10;99.90
9800;DHT22;4939;52.00085300;4.17406100;2023-04-22T12:39:40;11.20;99.90
9800;DHT22;4939;52.00085300;4.17406100;2023-04-22T12:42:06;11.20;99.90
9800;DHT22;4939;52.00085300;4.17406100;2023-04-22T12:44:32;11.40;99.90
9800;DHT22;4939;52.00085300;4.17406100;2023-04-22T12:46:59;11.40;99.90
9800;DHT22;4939;52.00085300;4.17406100;2023-04-22T12:49:25;11.40;99.90
9800;DHT22;4939;52.00085300;4.17406100;2023-04-22T12:51:51;11.40;99.90
9800;DHT22;4939;52.00085300;4.17406100;2023-04-22T12:54:18;11.40;99.90
9800;DHT22;4939;52.00085300;4.17406100;2023-04-22T12:56:44;11.40;99.90
9800;DHT22;4939;52.00085300;4.17406100;2023-04-22T12:59:10;11.40;99.90
9800;DHT22;4939;52.00085300;4.17406100;2023-04-22T13:01:35;11.50;99.90
9800;DHT22;4939;52.00085300;4.17406100;2023-04-22T13:04:01;11.40;99.90
9800;DHT22;4939;52.00085300;4.17406100;2023-04-22T13:06:27;11.30;99.90
9800;DHT22;4939;52.00085300;4.17406100;2023-04-22T13:08:53;11.30;99.90
9800;DHT22;4939;52.00085300;4.17406100;2023-04-22T13:11:20;11.30;99.90
9800;DHT22;4939;52.00085300;4.17406100;2023-04-22T13:13:45;11.30;99.90
9800;DHT22;4939;52.00085300;4.17406100;2023-04-22T13:16:11;11.30;99.90
9800;DHT22;4939;52.00085300;4.17406100;2023-04-22T13:18:37;11.40;99.90
9800;DHT22;4939;52.00085300;4.17406100;2023-04-22T13:21:02;11.20;99.90
9800;DHT22;4939;52.00085300;4.17406100;2023-04-22T13:23:30;11.30;99.90
9800;DHT22;4939;52.00085300;4.17406100;2023-04-22T13:25:57;11.40;99.90
9800;DHT22;4939;52.00085300;4.17406100;2023-04-22T13:28:22;11.30;99.90
9800;DHT22;4939;52.00085300;4.17406100;2023-04-22T13:30:48;11.30;99.90
9800;DHT22;4939;52.00085300;4.17406100;2023-04-22T13:33:14;11.20;99.90
9800;DHT22;4939;52.00085300;4.17406100;2023-04-22T13:35:40;11.30;99.90
9800;DHT22;4939;52.00085300;4.17406100;2023-04-22T13:38:06;11.20;99.90
9800;DHT22;4939;52.00085300;4.17406100;2023-04-22T13:40:31;11.20;99.90
9800;DHT22;4939;52.00085300;4.17406100;2023-04-22T13:42:57;11.20;99.90
9800;DHT22;4939;52.00085300;4.17406100;2023-04-22T13:45:23;11.10;99.90
9800;DHT22;4939;52.00085300;4.17406100;2023-04-22T13:47:50;11.10;99.90
9800;DHT22;4939;52.00085300;4.17406100;2023-04-22T13:50:16;11.10;99.90
9800;DHT22;4939;52.00085300;4.17406100;2023-04-22T13:52:42;11.10;99.90
9800;DHT22;4939;52.00085300;4.17406100;2023-04-22T13:55:08;11.00;99.90
9800;DHT22;4939;52.00085300;4.17406100;2023-04-22T13:57:34;11.00;99.90
9800;DHT22;4939;52.00085300;4.17406100;2023-04-22T13:59:59;11.00;99.90
9800;DHT22;4939;52.00085300;4.17406100;2023-04-22T14:02:25;10.90;99.90
9800;DHT22;4939;52.00085300;4.17406100;2023-04-22T14:04:51;10.90;99.90
9800;DHT22;4939;52.00085300;4.17406100;2023-04-22T14:07:17;10.90;99.90
9800;DHT22;4939;52.00085300;4.17406100;2023-04-22T14:09:43;10.80;99.90
9800;DHT22;4939;52.00085300;4.17406100;2023-04-22T14:12:09;10.80;99.90
9800;DHT22;4939;52.00085300;4.17406100;2023-04-22T14:14:35;10.70;99.90
9800;DHT22;4939;52.00085300;4.17406100;2023-04-22T14:17:01;10.70;99.90
9800;DHT22;4939;52.00085300;4.17406100;2023-04-22T14:19:27;10.60;99.90
9800;DHT22;4939;52.00085300;4.17406100;2023-04-22T14:21:55;10.60;99.90
9800;DHT22;4939;52.00085300;4.17406100;2023-04-22T14:24:21;10.60;99.90
9800;DHT22;4939;52.00085300;4.17406100;2023-04-22T14:26:48;10.60;99.90
9800;DHT22;4939;52.00085300;4.17406100;2023-04-22T14:29:14;10.60;99.90
9800;DHT22;4939;52.00085300;4.17406100;2023-04-22T14:31:40;10.60;99.90
9800;DHT22;4939;52.00085300;4.17406100;2023-04-22T14:34:05;10.60;99.90
9800;DHT22;4939;52.00085300;4.17406100;2023-04-22T14:36:31;10.60;99.90
9800;DHT22;4939;52.00085300;4.17406100;2023-04-22T14:38:56;10.60;99.90
9800;DHT22;4939;52.00085300;4.17406100;2023-04-22T14:41:22;10.50;99.90
9800;DHT22;4939;52.00085300;4.17406100;2023-04-22T14:43:48;10.60;99.90
9800;DHT22;4939;52.00085300;4.17406100;2023-04-22T14:46:14;10.60;99.90
9800;DHT22;4939;52.00085300;4.17406100;2023-04-22T14:48:39;10.50;99.90
9800;DHT22;4939;52.00085300;4.17406100;2023-04-22T14:51:05;10.50;99.90